createdAt,value
2022-10-25T00:00:06.336Z,959.79
2022-10-25T00:15:08.395Z,959.75
2022-10-25T00:30:10.247Z,959.77
2022-10-25T00:45:12.207Z,959.9
2022-10-25T01:00:14.071Z,959.91
2022-10-25T01:15:15.934Z,960.05
2022-10-25T01:30:17.778Z,960.03
2022-10-25T01:45:19.614Z,960.06
2022-10-25T02:00:21.480Z,960.21
2022-10-25T02:15:23.346Z,960.37
2022-10-25T02:30:25.162Z,960.38
2022-10-25T02:45:26.988Z,960.24
2022-10-25T03:00:28.925Z,960.32
2022-10-25T03:15:30.769Z,960.51
2022-10-25T03:30:32.610Z,960.51
2022-10-25T03:45:34.446Z,960.49
2022-10-25T04:00:36.390Z,960.5
2022-10-25T04:15:38.302Z,960.64
2022-10-25T04:30:40.181Z,960.74
2022-10-25T04:45:42.049Z,960.72
2022-10-25T05:00:43.907Z,960.85
2022-10-25T05:15:45.925Z,960.89
2022-10-25T05:30:47.767Z,960.83
2022-10-25T05:45:49.597Z,960.86
2022-10-25T06:00:51.505Z,960.98
2022-10-25T06:15:53.407Z,961.03
2022-10-25T06:30:55.356Z,961.01
2022-10-25T06:45:57.179Z,961.09
2022-10-25T07:00:59.097Z,961.15
2022-10-25T07:16:00.999Z,961.23
2022-10-25T07:31:02.869Z,961.31
2022-10-25T07:46:04.692Z,961.39
2022-10-25T08:01:06.607Z,961.34
2022-10-25T08:16:08.581Z,961.38
2022-10-25T08:31:10.435Z,961.45
2022-10-25T08:46:12.233Z,961.4
2022-10-25T09:01:14.206Z,961.46
2022-10-25T09:16:16.097Z,961.55
2022-10-25T09:31:19.030Z,961.77
2022-10-25T09:46:20.900Z,961.83
2022-10-25T10:01:22.807Z,961.88
2022-10-25T10:16:24.735Z,962.03
2022-10-25T10:31:26.539Z,962.37
2022-10-25T10:46:28.366Z,963.16
2022-10-25T11:01:30.453Z,963.13
2022-10-25T11:16:32.416Z,963.22
2022-10-25T11:31:34.341Z,963.29
2022-10-25T11:46:36.166Z,963.45
2022-10-25T12:01:38.283Z,963.61
2022-10-25T12:16:40.391Z,963.73
2022-10-25T12:31:42.261Z,963.89
2022-10-25T12:46:44.120Z,964.09
2022-10-25T13:01:46.044Z,964.48
2022-10-25T13:16:47.942Z,964.8
2022-10-25T13:31:49.830Z,964.92
2022-10-25T13:46:51.660Z,964.93
2022-10-25T14:01:53.702Z,965.09
2022-10-25T14:16:55.603Z,965.28
2022-10-25T14:31:57.479Z,965.51
2022-10-25T14:46:59.328Z,965.69
2022-10-25T15:02:01.300Z,965.83
2022-10-25T15:17:03.182Z,965.79
2022-10-25T15:32:05.016Z,966.04
2022-10-25T15:47:06.881Z,966.18
2022-10-25T16:02:08.870Z,966.21
2022-10-25T16:17:10.729Z,966.15
2022-10-25T16:32:12.563Z,966.13
2022-10-25T16:47:14.368Z,966.27
2022-10-25T17:02:16.344Z,966.27
2022-10-25T17:17:18.379Z,966.3
2022-10-25T17:32:20.313Z,966.36
2022-10-25T17:47:22.141Z,966.34
2022-10-25T18:02:24.132Z,966.28
2022-10-25T18:17:26.060Z,966.22
2022-10-25T18:32:32.142Z,966.2
2022-10-25T18:47:37.144Z,966.03
2022-10-25T19:02:39.036Z,965.82
2022-10-25T19:17:40.914Z,965.66
2022-10-25T19:32:42.775Z,965.44
2022-10-25T19:47:44.583Z,965.33
2022-10-25T20:02:46.491Z,965.12
2022-10-25T20:17:48.897Z,965.01
2022-10-25T20:32:50.934Z,964.92
2022-10-25T20:47:52.798Z,964.86
2022-10-25T21:02:54.628Z,964.72
2022-10-25T21:17:56.451Z,964.58
2022-10-25T21:32:58.318Z,964.36
2022-10-25T21:48:00.201Z,964.07
2022-10-25T22:03:02.997Z,963.92
2022-10-25T22:18:04.818Z,963.73
2022-10-25T22:33:06.679Z,963.52
2022-10-25T22:48:08.501Z,963.3
2022-10-25T23:03:10.457Z,963.15
2022-10-25T23:18:12.352Z,963.19
2022-10-25T23:33:14.221Z,963.09
2022-10-25T23:48:16.089Z,963.03
